Time;durP1;ratioP1;P1;durP2;ratioP2;P2;SDS_P1;SDS_P2;PMS_P1;PMS_P2;Temp;Humidity;BMP_temperature;BMP_pressure;BME280_temperature;BME280_humidity;BME280_pressure;Samples;Min_cycle;Max_cycle;Signal;HPM_P1;HPM_P2
2022/05/27 00:00:52;;;;;;;1.70;0.70;;;15.70;99.90;;;;;;5115499;28;20173;-58
2022/05/27 00:03:18;;;;;;;1.48;0.77;;;15.80;99.90;;;;;;5115374;28;20675;-60
2022/05/27 00:05:44;;;;;;;2.92;1.10;;;15.80;99.90;;;;;;5115041;28;20188;-59
2022/05/27 00:08:10;;;;;;;1.77;0.82;;;15.80;99.90;;;;;;5115202;28;20180;-59
2022/05/27 00:10:37;;;;;;;1.25;0.82;;;15.70;99.90;;;;;;5115323;28;20205;-59
2022/05/27 00:13:03;;;;;;;0.80;0.80;;;15.70;99.90;;;;;;5114750;28;20301;-58
2022/05/27 00:15:29;;;;;;;2.60;1.17;;;15.70;99.90;;;;;;5115252;28;20182;-59
2022/05/27 00:17:55;;;;;;;1.15;0.80;;;15.70;99.90;;;;;;5114258;28;20305;-59
2022/05/27 00:20:21;;;;;;;0.85;0.80;;;15.70;99.90;;;;;;5113889;28;20178;-59
2022/05/27 00:22:46;;;;;;;2.60;1.08;;;15.70;99.90;;;;;;5114878;28;20181;-59
2022/05/27 00:25:13;;;;;;;1.45;0.70;;;15.70;99.90;;;;;;5114885;28;20252;-59
2022/05/27 00:27:39;;;;;;;1.67;0.80;;;15.70;99.90;;;;;;5114800;28;20181;-58
2022/05/27 00:30:06;;;;;;;1.10;0.73;;;15.80;99.90;;;;;;5113573;28;20235;-59
2022/05/27 00:32:32;;;;;;;2.72;1.00;;;15.80;99.90;;;;;;5114990;28;20190;-59
2022/05/27 00:34:58;;;;;;;0.90;0.80;;;15.70;99.90;;;;;;5114728;28;20323;-59
2022/05/27 00:37:23;;;;;;;1.63;0.75;;;15.70;99.90;;;;;;5114417;28;20185;-59
2022/05/27 00:39:49;;;;;;;2.13;0.85;;;15.70;99.90;;;;;;5114804;28;20184;-58
2022/05/27 00:42:15;;;;;;;1.80;1.00;;;15.70;99.90;;;;;;5113506;28;20173;-58
2022/05/27 00:44:40;;;;;;;2.13;0.90;;;15.70;99.90;;;;;;5114617;28;20173;-59
2022/05/27 00:47:13;;;;;;;3.03;1.10;;;15.70;99.90;;;;;;5114752;28;20542;-59
2022/05/27 00:49:53;;;;;;;2.13;1.02;;;15.80;99.90;;;;;;5114425;28;20211;-58
2022/05/27 00:52:21;;;;;;;1.20;1.05;;;15.80;99.90;;;;;;5114579;28;20184;-60
2022/05/27 00:54:48;;;;;;;1.63;1.15;;;15.60;99.90;;;;;;5114292;28;20553;-59
2022/05/27 00:57:24;;;;;;;0.77;0.77;;;15.60;99.90;;;;;;5114436;28;20183;-59
2022/05/27 00:59:57;;;;;;;3.22;1.08;;;15.60;99.90;;;;;;5114383;28;20638;-59
2022/05/27 01:02:23;;;;;;;1.83;1.00;;;15.70;99.90;;;;;;5114225;28;20201;-59
2022/05/27 01:04:50;;;;;;;1.30;1.08;;;15.60;99.90;;;;;;5113223;28;20570;-59
2022/05/27 01:07:16;;;;;;;1.58;1.25;;;15.70;99.90;;;;;;5114358;28;20268;-59
2022/05/27 01:09:45;;;;;;;1.85;0.90;;;15.70;99.90;;;;;;5112801;28;20189;-60
2022/05/27 01:12:17;;;;;;;1.08;0.95;;;15.70;99.90;;;;;;5114163;28;20208;-59
2022/05/27 01:14:42;;;;;;;3.13;1.20;;;15.70;99.90;;;;;;5114002;28;20169;-59
2022/05/27 01:17:22;;;;;;;2.20;1.05;;;15.70;99.90;;;;;;5112806;28;20234;-59
2022/05/27 01:20:19;;;;;;;4.68;1.90;;;15.70;99.90;;;;;;5114115;28;20222;-59
2022/05/27 01:22:50;;;;;;;1.65;0.82;;;15.70;99.90;;;;;;5113618;28;20173;-58
2022/05/27 01:25:37;;;;;;;2.10;1.02;;;15.70;99.90;;;;;;5113456;28;20169;-58
2022/05/27 01:28:06;;;;;;;1.70;1.02;;;15.70;99.90;;;;;;5114044;28;20533;-58
2022/05/27 01:30:51;;;;;;;3.33;1.00;;;15.70;99.90;;;;;;5112565;28;20208;-59
2022/05/27 01:33:35;;;;;;;1.02;0.90;;;15.60;99.90;;;;;;5113808;28;20599;-58
2022/05/27 01:36:09;;;;;;;2.17;0.98;;;15.60;99.90;;;;;;5113928;28;20169;-58
2022/05/27 01:38:44;;;;;;;2.40;1.35;;;15.70;99.90;;;;;;5113913;28;20187;-58
2022/05/27 01:41:48;;;;;;;3.97;1.73;;;15.70;99.90;;;;;;5113880;28;20161;-59
2022/05/27 01:44:45;;;;;;;1.92;1.45;;;15.70;99.90;;;;;;5100265;28;20189;-58
2022/05/27 01:47:21;;;;;;;2.67;1.05;;;15.70;99.90;;;;;;5101401;28;20181;-58
2022/05/27 01:49:59;;;;;;;1.10;0.93;;;15.70;99.90;;;;;;5113662;28;20732;-58
2022/05/27 01:52:35;;;;;;;2.65;1.33;;;15.80;99.90;;;;;;5113849;28;20173;-58
2022/05/27 01:55:05;;;;;;;1.10;0.88;;;15.80;99.90;;;;;;5113858;28;20164;-58
2022/05/27 01:57:41;;;;;;;2.15;1.13;;;15.80;99.90;;;;;;5113746;28;20169;-58
2022/05/27 02:00:12;;;;;;;1.45;1.10;;;15.70;99.90;;;;;;5112351;28;20184;-58
2022/05/27 02:03:01;;;;;;;2.85;1.33;;;15.70;99.90;;;;;;5113418;28;20759;-58
2022/05/27 02:05:33;;;;;;;1.90;1.60;;;15.70;99.90;;;;;;5102495;28;20208;-58
2022/05/27 02:08:06;;;;;;;2.92;1.00;;;15.70;99.90;;;;;;5113590;28;20169;-58
2022/05/27 02:10:55;;;;;;;3.33;1.58;;;15.70;99.90;;;;;;5113469;28;20681;-58
2022/05/27 02:13:25;;;;;;;3.47;1.40;;;15.70;99.90;;;;;;5113322;28;20185;-58
2022/05/27 02:15:52;;;;;;;3.63;1.30;;;15.70;99.90;;;;;;5113358;28;20632;-58
2022/05/27 02:18:30;;;;;;;2.67;1.52;;;15.70;99.90;;;;;;5113420;28;20260;-59
2022/05/27 02:21:04;;;;;;;2.97;1.38;;;15.70;99.90;;;;;;5113360;28;20264;-58
2022/05/27 02:23:42;;;;;;;2.25;1.65;;;15.70;99.90;;;;;;5113275;28;20166;-59
2022/05/27 02:26:14;;;;;;;3.30;2.20;;;15.80;99.90;;;;;;5113524;28;20172;-58
2022/05/27 02:28:43;;;;;;;2.88;1.33;;;15.70;99.90;;;;;;5113360;28;20177;-58
2022/05/27 02:31:18;;;;;;;1.75;1.35;;;15.80;99.90;;;;;;5113290;28;20222;-58
2022/05/27 02:36:50;;;;;;;1.70;1.50;;;15.80;99.90;;;;;;5117183;28;20220;-58
2022/05/27 02:39:16;;;;;;;2.55;1.67;;;15.80;99.90;;;;;;5117223;28;20203;-58
2022/05/27 02:41:59;;;;;;;3.65;1.55;;;15.70;99.90;;;;;;5117051;28;20169;-59
2022/05/27 02:44:57;;;;;;;2.30;1.95;;;15.80;99.90;;;;;;5116860;28;20691;-58
2022/05/27 02:47:46;;;;;;;4.18;1.92;;;15.80;99.90;;;;;;5117001;28;20649;-58
2022/05/27 02:50:29;;;;;;;2.70;2.15;;;15.70;99.90;;;;;;5108396;28;20209;-58
2022/05/27 02:53:06;;;;;;;4.47;2.00;;;15.80;99.90;;;;;;5116678;28;20263;-59
2022/05/27 02:55:50;;;;;;;6.57;2.00;;;15.70;99.90;;;;;;5116966;28;20644;-58
2022/05/27 02:58:16;;;;;;;3.03;1.98;;;15.70;99.90;;;;;;5115439;28;20533;-58
2022/05/27 03:00:44;;;;;;;2.35;1.88;;;15.70;99.90;;;;;;5116640;28;20178;-58
2022/05/27 03:03:10;;;;;;;4.82;2.45;;;15.70;99.90;;;;;;5116537;28;20178;-58
2022/05/27 03:05:53;;;;;;;2.10;1.80;;;15.70;99.90;;;;;;5116453;28;20193;-58
2022/05/27 03:08:38;;;;;;;4.97;2.35;;;15.70;99.90;;;;;;5116603;28;20194;-58
2022/05/27 03:11:21;;;;;;;2.80;1.92;;;15.60;99.90;;;;;;5116337;28;20196;-58
2022/05/27 03:14:19;;;;;;;3.50;3.03;;;15.50;99.90;;;;;;5116375;28;20170;-58
2022/05/27 03:17:03;;;;;;;2.80;2.17;;;15.50;99.90;;;;;;5116487;28;20168;-58
2022/05/27 03:19:36;;;;;;;3.58;2.10;;;15.50;99.90;;;;;;5116228;28;20638;-58
2022/05/27 03:22:18;;;;;;;3.78;2.33;;;15.40;99.90;;;;;;5116172;28;20177;-58
2022/05/27 03:24:52;;;;;;;4.22;2.67;;;15.40;99.90;;;;;;5116574;28;20208;-58
2022/05/27 03:27:23;;;;;;;3.55;2.30;;;15.40;99.90;;;;;;5116323;28;20165;-58
2022/05/27 03:29:52;;;;;;;4.38;2.10;;;15.40;99.90;;;;;;5116097;28;20205;-58
2022/05/27 03:32:37;;;;;;;2.53;2.28;;;15.30;99.90;;;;;;5115949;28;20178;-59
2022/05/27 03:35:08;;;;;;;3.03;2.33;;;15.30;99.90;;;;;;5116192;28;20212;-57
2022/05/27 03:37:39;;;;;;;3.67;2.10;;;15.30;99.90;;;;;;5115856;28;20177;-58
2022/05/27 03:40:08;;;;;;;3.33;2.03;;;15.30;99.90;;;;;;5116008;28;20180;-59
2022/05/27 03:42:35;;;;;;;3.92;2.35;;;15.30;99.90;;;;;;5115740;28;20568;-59
2022/05/27 03:45:06;;;;;;;2.72;2.22;;;15.30;99.90;;;;;;5115753;28;20169;-58
2022/05/27 03:47:32;;;;;;;4.28;2.50;;;15.30;99.90;;;;;;5114749;28;20168;-59
2022/05/27 03:49:58;;;;;;;3.08;2.42;;;15.30;99.90;;;;;;5115715;28;20222;-59
2022/05/27 03:52:28;;;;;;;3.33;2.60;;;15.30;99.90;;;;;;5114436;28;20178;-59
2022/05/27 03:54:53;;;;;;;3.70;2.17;;;15.30;99.90;;;;;;5115554;28;20176;-58
2022/05/27 03:57:20;;;;;;;3.70;2.45;;;15.30;99.90;;;;;;5115463;28;20546;-59
2022/05/27 03:59:46;;;;;;;3.92;2.53;;;15.30;99.90;;;;;;5114303;28;20181;-59
2022/05/27 04:02:12;;;;;;;4.35;2.50;;;15.30;99.90;;;;;;5115473;28;20188;-59
2022/05/27 04:04:37;;;;;;;6.43;3.15;;;15.30;99.90;;;;;;5115757;28;20217;-58
2022/05/27 04:07:04;;;;;;;4.68;3.20;;;15.30;99.90;;;;;;5115042;28;20212;-59
2022/05/27 04:09:32;;;;;;;3.75;2.83;;;15.20;99.90;;;;;;5115119;28;20607;-59
2022/05/27 04:11:58;;;;;;;3.10;2.80;;;15.10;99.90;;;;;;5115080;28;20205;-59
2022/05/27 04:14:24;;;;;;;5.32;3.17;;;15.10;99.90;;;;;;5115394;28;20273;-58
2022/05/27 04:16:50;;;;;;;5.50;3.33;;;15.10;99.90;;;;;;5115247;28;20364;-58
2022/05/27 04:19:18;;;;;;;4.97;3.22;;;15.10;99.90;;;;;;5115149;28;20177;-59
2022/05/27 04:21:44;;;;;;;3.83;3.03;;;15.20;99.90;;;;;;5115143;28;20173;-59
2022/05/27 04:24:10;;;;;;;5.25;2.97;;;15.10;99.90;;;;;;5113408;28;20626;-58
2022/05/27 04:26:37;;;;;;;3.70;3.30;;;15.10;99.90;;;;;;5113911;28;20290;-58
2022/05/27 04:29:03;;;;;;;4.25;2.88;;;15.10;99.90;;;;;;5113887;28;20252;-58
2022/05/27 04:31:28;;;;;;;5.40;3.72;;;15.10;99.90;;;;;;5112717;28;20246;-58
2022/05/27 04:33:55;;;;;;;4.65;3.25;;;15.10;99.90;;;;;;5114021;28;20208;-59
2022/05/27 04:36:20;;;;;;;5.20;4.05;;;15.20;99.90;;;;;;5095866;28;20547;-58
2022/05/27 04:38:46;;;;;;;4.40;3.67;;;15.20;99.90;;;;;;5113853;28;20185;-59
2022/05/27 04:41:12;;;;;;;6.50;4.03;;;15.20;99.90;;;;;;5112410;28;20256;-58
2022/05/27 04:43:38;;;;;;;4.78;4.30;;;15.10;99.90;;;;;;5113890;28;20631;-58
2022/05/27 04:46:04;;;;;;;4.90;3.90;;;15.20;99.90;;;;;;5112420;28;20169;-58
2022/05/27 04:48:29;;;;;;;3.85;3.50;;;15.20;99.90;;;;;;5112478;28;20181;-58
2022/05/27 04:50:55;;;;;;;5.25;4.00;;;15.20;99.90;;;;;;5095242;28;20213;-58
2022/05/27 04:53:21;;;;;;;4.95;3.78;;;15.20;99.90;;;;;;5113532;28;20181;-59
2022/05/27 04:55:46;;;;;;;5.90;4.65;;;15.20;99.90;;;;;;5113428;28;20206;-58
2022/05/27 04:58:12;;;;;;;6.45;4.40;;;15.20;99.90;;;;;;5095277;28;20177;-59
2022/05/27 05:00:46;;;;;;;6.45;4.32;;;15.20;99.90;;;;;;5112205;28;20634;-58
2022/05/27 05:03:12;;;;;;;8.45;4.57;;;15.30;99.90;;;;;;5113474;28;20157;-58
2022/05/27 05:05:39;;;;;;;5.28;4.13;;;15.30;99.90;;;;;;5113181;28;20189;-58
2022/05/27 05:08:15;;;;;;;5.97;4.15;;;15.30;99.90;;;;;;5113368;28;20178;-59
2022/05/27 05:10:41;;;;;;;6.00;4.65;;;15.30;99.90;;;;;;5113389;28;20204;-58
2022/05/27 05:13:06;;;;;;;4.32;3.42;;;15.40;99.90;;;;;;5113312;28;20608;-59
2022/05/27 05:15:32;;;;;;;5.28;4.10;;;15.40;99.90;;;;;;5111984;28;20173;-59
2022/05/27 05:17:58;;;;;;;6.80;4.20;;;15.50;99.90;;;;;;5111965;28;20173;-58
2022/05/27 05:20:30;;;;;;;5.13;3.85;;;15.50;99.90;;;;;;5113088;28;20701;-58
2022/05/27 05:22:56;;;;;;;5.68;4.05;;;15.50;99.90;;;;;;5113075;28;20180;-59
2022/05/27 05:25:23;;;;;;;6.82;4.43;;;15.50;99.90;;;;;;5113219;28;20166;-58
2022/05/27 05:27:49;;;;;;;5.38;4.30;;;15.60;99.90;;;;;;5111823;28;20208;-58
2022/05/27 05:30:18;;;;;;;7.45;4.30;;;15.60;99.90;;;;;;5113004;28;20295;-58
2022/05/27 05:32:44;;;;;;;5.60;4.28;;;15.60;99.90;;;;;;5112931;28;20180;-58
2022/05/27 05:35:11;;;;;;;5.57;4.18;;;15.60;99.90;;;;;;5112697;28;20177;-59
2022/05/27 05:37:37;;;;;;;5.85;3.90;;;15.60;99.90;;;;;;5113114;28;20173;-58
2022/05/27 05:40:03;;;;;;;6.43;3.70;;;15.70;99.90;;;;;;5113077;28;20195;-58
2022/05/27 05:42:29;;;;;;;5.45;3.72;;;15.70;99.90;;;;;;5112889;28;20177;-58
2022/05/27 05:44:55;;;;;;;4.18;3.50;;;15.80;99.90;;;;;;5111453;28;20173;-59
2022/05/27 05:47:21;;;;;;;5.03;3.00;;;15.80;99.90;;;;;;5111625;28;20201;-58
2022/05/27 05:49:47;;;;;;;4.47;2.83;;;15.80;99.90;;;;;;5112626;28;20286;-58
2022/05/27 05:52:12;;;;;;;4.30;2.92;;;15.90;99.90;;;;;;5113187;28;20195;-58
2022/05/27 05:54:39;;;;;;;5.07;3.05;;;15.90;99.90;;;;;;5112851;28;20169;-58
2022/05/27 05:57:05;;;;;;;4.30;2.95;;;16.00;99.90;;;;;;5111355;28;20169;-58
2022/05/27 05:59:33;;;;;;;6.03;2.92;;;16.10;99.90;;;;;;5112650;28;20654;-58
2022/05/27 06:01:59;;;;;;;2.50;1.90;;;16.10;99.90;;;;;;5112656;28;20214;-58
2022/05/27 06:04:25;;;;;;;2.42;2.15;;;16.20;99.90;;;;;;5112565;28;20182;-58
2022/05/27 06:06:51;;;;;;;3.92;2.33;;;16.30;99.90;;;;;;5112746;28;20257;-58
2022/05/27 06:09:19;;;;;;;3.08;2.22;;;16.40;99.90;;;;;;5112883;28;20223;-58
2022/05/27 06:11:45;;;;;;;1.95;1.75;;;16.20;99.90;;;;;;5115562;28;20177;-58
2022/05/27 06:14:11;;;;;;;4.65;2.00;;;16.30;99.90;;;;;;5098583;28;20180;-58
2022/05/27 06:16:37;;;;;;;2.05;1.70;;;16.40;99.90;;;;;;5115451;28;20233;-58
2022/05/27 06:19:02;;;;;;;3.03;1.83;;;16.50;99.90;;;;;;5116507;28;20534;-58
2022/05/27 06:21:28;;;;;;;2.08;1.70;;;16.60;99.90;;;;;;5116801;28;20276;-58
2022/05/27 06:23:54;;;;;;;2.28;1.73;;;16.70;99.90;;;;;;5116614;28;20179;-58
2022/05/27 06:26:20;;;;;;;2.78;1.45;;;16.60;99.90;;;;;;5116539;28;20560;-58
2022/05/27 06:34:24;;;;;;;2.42;1.73;;;16.60;99.90;;;;;;5116538;28;20526;-58
2022/05/27 06:36:57;;;;;;;3.50;1.55;;;16.60;99.90;;;;;;5115103;28;20268;-58
2022/05/27 06:39:24;;;;;;;2.10;1.40;;;16.60;99.90;;;;;;5116331;28;20204;-58
2022/05/27 06:41:50;;;;;;;2.22;1.40;;;16.50;99.90;;;;;;5116097;28;20177;-59
2022/05/27 06:44:17;;;;;;;1.45;1.30;;;16.60;99.90;;;;;;5114732;28;20254;-58
2022/05/27 06:46:42;;;;;;;1.33;1.23;;;16.60;99.90;;;;;;5115956;28;20254;-58
2022/05/27 06:49:08;;;;;;;2.33;1.20;;;16.90;99.90;;;;;;5116000;28;20630;-59
2022/05/27 06:51:39;;;;;;;3.17;1.60;;;17.00;99.90;;;;;;5116342;28;20623;-58
2022/05/27 06:54:06;;;;;;;1.60;1.40;;;17.00;99.90;;;;;;5115954;28;20251;-58
2022/05/27 06:56:35;;;;;;;1.02;1.00;;;17.10;99.90;;;;;;5115789;28;20185;-58
2022/05/27 06:59:02;;;;;;;2.55;1.48;;;17.20;99.90;;;;;;5115918;28;20534;-58
2022/05/27 07:01:28;;;;;;;1.92;1.20;;;17.30;99.90;;;;;;5115681;28;20215;-58
2022/05/27 07:03:53;;;;;;;1.23;1.10;;;17.60;99.90;;;;;;5115767;28;20204;-58
2022/05/27 07:06:19;;;;;;;1.42;1.13;;;17.50;99.90;;;;;;5114366;28;20648;-58
2022/05/27 07:08:45;;;;;;;1.70;1.33;;;17.60;99.90;;;;;;5115637;28;20534;-59
2022/05/27 07:11:11;;;;;;;2.20;1.25;;;17.90;99.90;;;;;;5115388;28;20213;-58
2022/05/27 07:13:36;;;;;;;1.38;0.90;;;18.10;99.90;;;;;;5115875;28;20204;-58
2022/05/27 07:16:04;;;;;;;1.55;1.30;;;18.20;99.90;;;;;;5114352;28;20223;-58
2022/05/27 07:18:31;;;;;;;1.35;1.05;;;18.10;99.90;;;;;;5115510;28;20169;-59
2022/05/27 07:21:05;;;;;;;1.10;1.00;;;18.10;99.90;;;;;;5114273;28;20181;-58
2022/05/27 07:23:32;;;;;;;2.35;1.13;;;18.10;99.90;;;;;;5115610;28;20191;-59
2022/05/27 07:25:58;;;;;;;1.77;1.13;;;18.10;99.90;;;;;;5114382;28;20185;-58
2022/05/27 07:28:24;;;;;;;1.45;1.10;;;18.30;99.90;;;;;;5114039;28;20638;-59
2022/05/27 07:30:50;;;;;;;1.20;1.10;;;18.30;99.90;;;;;;5115059;28;20673;-58
2022/05/27 07:33:15;;;;;;;2.22;1.10;;;18.30;99.90;;;;;;5096961;28;20188;-58
2022/05/27 07:35:41;;;;;;;1.15;1.05;;;18.10;99.90;;;;;;5097170;28;20319;-58
2022/05/27 07:38:08;;;;;;;2.40;1.30;;;17.90;99.90;;;;;;5114906;28;20173;-59
2022/05/27 07:40:33;;;;;;;1.58;1.20;;;17.80;99.90;;;;;;5115249;28;20197;-58
2022/05/27 07:42:59;;;;;;;1.77;1.10;;;18.00;99.90;;;;;;5115299;28;20254;-58
2022/05/27 07:45:29;;;;;;;2.80;0.93;;;18.20;99.90;;;;;;5115543;28;20173;-58
2022/05/27 07:47:55;;;;;;;1.33;1.10;;;18.20;99.90;;;;;;5113750;28;20180;-59
2022/05/27 07:50:22;;;;;;;0.95;0.95;;;18.20;99.90;;;;;;5114814;28;20198;-59
2022/05/27 07:52:48;;;;;;;2.80;1.13;;;18.00;99.90;;;;;;5114633;28;20193;-59
2022/05/27 07:55:14;;;;;;;2.38;1.10;;;18.30;99.90;;;;;;5115083;28;20174;-58
2022/05/27 07:57:44;;;;;;;5.13;1.30;;;18.40;99.90;;;;;;5114671;28;20175;-58
2022/05/27 08:00:31;;;;;;;1.42;1.33;;;18.60;99.90;;;;;;5114748;28;20169;-58
2022/05/27 08:02:57;;;;;;;1.33;1.23;;;18.40;99.90;;;;;;5114036;28;20197;-58
2022/05/27 08:05:25;;;;;;;1.75;1.27;;;18.50;99.90;;;;;;5114155;28;20180;-59
2022/05/27 08:07:53;;;;;;;0.80;0.68;;;18.60;99.90;;;;;;5114809;28;20238;-58
2022/05/27 08:10:22;;;;;;;1.00;0.60;;;18.70;99.90;;;;;;5114433;28;20209;-58
2022/05/27 08:12:48;;;;;;;3.10;0.88;;;19.00;99.90;;;;;;5114480;28;20222;-58
2022/05/27 08:15:15;;;;;;;1.52;1.02;;;18.70;99.90;;;;;;5114521;28;20607;-58
2022/05/27 08:17:41;;;;;;;2.42;1.38;;;18.50;99.90;;;;;;5114275;28;20177;-58
2022/05/27 08:20:10;;;;;;;1.55;1.23;;;18.20;99.90;;;;;;5114220;28;20177;-59
2022/05/27 08:22:36;;;;;;;1.10;0.90;;;18.20;99.90;;;;;;5114184;28;20215;-58
2022/05/27 08:25:03;;;;;;;2.58;1.15;;;18.40;99.90;;;;;;5113118;28;20181;-58
2022/05/27 08:27:28;;;;;;;1.65;1.10;;;18.90;99.90;;;;;;5114266;28;20637;-58
2022/05/27 08:29:54;;;;;;;1.60;1.05;;;19.00;99.90;;;;;;5114038;28;20278;-58
2022/05/27 08:32:20;;;;;;;1.05;0.80;;;19.30;99.90;;;;;;5113844;28;20227;-58
2022/05/27 08:40:23;;;;;;;2.38;1.20;;;19.50;99.90;;;;;;5115053;28;20262;-58
2022/05/27 08:42:58;;;;;;;3.30;1.08;;;19.40;99.90;;;;;;5114553;28;20169;-58
2022/05/27 08:45:36;;;;;;;2.05;1.00;;;19.60;99.90;;;;;;5114841;28;20507;-59
2022/05/27 08:48:07;;;;;;;3.70;1.85;;;19.50;99.90;;;;;;5114731;28;20218;-59
2022/05/27 08:50:41;;;;;;;5.13;1.80;;;19.00;99.90;;;;;;5114577;28;20307;-59
2022/05/27 08:53:20;;;;;;;2.03;1.20;;;18.70;99.90;;;;;;5114491;28;20172;-58
2022/05/27 08:59:30;;;;;;;2.47;0.95;;;18.70;99.90;;;;;;5114661;28;20291;-60
2022/05/27 09:02:02;;;;;;;2.15;1.30;;;19.30;99.90;;;;;;5114554;28;20187;-58
2022/05/27 09:04:36;;;;;;;3.67;1.35;;;20.00;99.90;;;;;;5114621;28;20690;-58
2022/05/27 09:07:34;;;;;;;1.17;1.00;;;19.60;99.90;;;;;;5114294;28;20558;-58
2022/05/27 09:10:03;;;;;;;1.88;1.10;;;19.00;99.90;;;;;;5114071;28;20189;-58
2022/05/27 09:12:48;;;;;;;2.95;1.20;;;18.70;99.90;;;;;;5114249;28;20176;-58
2022/05/27 09:15:54;;;;;;;1.13;0.98;;;18.60;99.90;;;;;;5114293;28;20204;-58
2022/05/27 09:18:44;;;;;;;1.60;1.02;;;19.10;99.90;;;;;;5114018;28;20278;-58
2022/05/27 09:21:20;;;;;;;1.13;1.00;;;18.80;99.90;;;;;;5114374;28;20178;-58
2022/05/27 09:24:09;;;;;;;2.90;1.00;;;18.90;99.90;;;;;;5113995;28;20653;-58
2022/05/27 09:27:08;;;;;;;2.47;1.20;;;19.40;99.90;;;;;;5105577;28;20182;-58
2022/05/27 09:29:55;;;;;;;1.80;1.00;;;19.80;99.90;;;;;;5102030;28;20208;-58
2022/05/27 09:33:01;;;;;;;2.35;1.15;;;20.20;99.90;;;;;;5113870;28;20534;-58
2022/05/27 09:35:29;;;;;;;0.73;0.60;;;20.40;99.90;;;;;;5114019;28;20176;-58
2022/05/27 09:38:01;;;;;;;1.00;0.90;;;19.70;99.90;;;;;;5113848;28;20222;-59
2022/05/27 09:40:47;;;;;;;1.63;0.90;;;19.90;99.90;;;;;;5112685;28;20256;-58
2022/05/27 09:43:28;;;;;;;1.00;0.90;;;19.70;99.90;;;;;;5113702;28;20165;-58
2022/05/27 09:46:03;;;;;;;1.33;1.10;;;20.20;99.90;;;;;;5113231;28;20556;-59
2022/05/27 09:48:29;;;;;;;1.95;1.00;;;20.60;99.90;;;;;;5113882;28;20180;-58
2022/05/27 09:50:59;;;;;;;0.90;0.90;;;19.80;99.90;;;;;;5113543;28;20213;-59
2022/05/27 09:53:33;;;;;;;2.88;1.00;;;19.30;99.90;;;;;;5113731;28;20217;-58
2022/05/27 09:56:08;;;;;;;1.23;0.93;;;19.40;99.90;;;;;;5113827;28;20233;-58
2022/05/27 09:58:37;;;;;;;1.58;0.93;;;19.40;99.90;;;;;;5113506;28;20615;-58
2022/05/27 10:01:17;;;;;;;3.03;0.98;;;20.00;99.90;;;;;;5113472;28;20541;-58
2022/05/27 10:03:43;;;;;;;1.83;1.17;;;20.40;99.90;;;;;;5113540;28;20165;-59
2022/05/27 10:06:19;;;;;;;1.52;0.95;;;20.20;99.90;;;;;;5112043;28;20664;-58
2022/05/27 10:08:50;;;;;;;1.52;1.02;;;19.90;99.90;;;;;;5112487;28;20270;-58
2022/05/27 10:11:46;;;;;;;1.88;1.10;;;19.80;99.90;;;;;;5113470;28;20262;-58
2022/05/27 10:14:28;;;;;;;1.50;1.02;;;19.30;99.90;;;;;;5113498;28;20184;-58
2022/05/27 10:17:13;;;;;;;2.20;1.08;;;19.40;99.90;;;;;;5113616;28;20172;-60
2022/05/27 10:19:44;;;;;;;1.48;1.00;;;19.80;99.90;;;;;;5113449;28;20169;-58
2022/05/27 10:22:30;;;;;;;1.85;1.20;;;20.10;99.90;;;;;;5113392;28;20201;-58
2022/05/27 10:25:00;;;;;;;1.52;1.20;;;20.20;99.90;;;;;;5111587;28;20583;-58
2022/05/27 10:27:36;;;;;;;1.30;1.15;;;20.40;99.90;;;;;;5113514;28;20649;-58
2022/05/27 10:30:06;;;;;;;3.78;1.17;;;20.30;99.90;;;;;;5113203;28;20236;-58
2022/05/27 10:32:37;;;;;;;2.50;1.60;;;20.40;99.90;;;;;;5113454;28;20196;-59
2022/05/27 10:35:29;;;;;;;2.25;1.15;;;20.20;99.90;;;;;;5111967;28;20170;-58
2022/05/27 10:38:22;;;;;;;2.17;1.00;;;20.10;99.90;;;;;;5113386;28;20177;-58
2022/05/27 10:40:53;;;;;;;2.88;1.27;;;19.60;99.90;;;;;;5113313;28;20180;-59
2022/05/27 10:43:30;;;;;;;1.70;1.10;;;20.00;99.90;;;;;;5113076;28;20264;-58
2022/05/27 10:46:00;;;;;;;2.33;1.20;;;20.40;99.90;;;;;;5113102;28;20184;-58
2022/05/27 10:48:41;;;;;;;1.63;1.13;;;20.00;99.90;;;;;;5113234;28;20165;-58
2022/05/27 10:51:25;;;;;;;1.92;1.38;;;19.50;99.90;;;;;;5113193;28;20689;-59
2022/05/27 10:54:08;;;;;;;1.83;1.15;;;19.70;99.90;;;;;;5113117;28;20210;-58
2022/05/27 11:03:08;;;;;;;1.35;1.20;;;19.80;99.90;;;;;;5116856;28;20245;-58
2022/05/27 11:05:52;;;;;;;3.38;1.63;;;19.90;99.90;;;;;;5116497;28;20177;-58
2022/05/27 11:08:30;;;;;;;1.52;1.20;;;19.70;99.90;;;;;;5116547;28;20173;-58
2022/05/27 11:11:33;;;;;;;2.80;1.60;;;19.60;99.90;;;;;;5116366;28;20730;-59
2022/05/27 11:17:21;;;;;;;1.65;1.30;;;20.00;99.90;;;;;;5116563;28;20250;-58
2022/05/27 11:20:10;;;;;;;2.70;1.30;;;20.40;99.90;;;;;;5116305;28;20211;-59
2022/05/27 11:23:07;;;;;;;1.30;1.20;;;19.80;99.90;;;;;;5116250;28;20165;-59
2022/05/27 11:25:37;;;;;;;1.65;1.15;;;19.90;99.90;;;;;;5116229;28;20154;-59
2022/05/27 11:28:47;;;;;;;1.60;1.20;;;20.00;99.90;;;;;;5116273;28;20176;-59
2022/05/27 11:31:27;;;;;;;1.20;0.90;;;20.40;99.90;;;;;;5081383;28;20224;-59
2022/05/27 11:34:04;;;;;;;2.30;1.20;;;20.40;99.90;;;;;;5116026;28;20200;-58
2022/05/27 11:36:40;;;;;;;1.80;1.30;;;20.30;99.90;;;;;;5115983;28;20260;-59
2022/05/27 11:39:43;;;;;;;3.80;1.70;;;20.30;99.90;;;;;;5116002;28;20228;-60
2022/05/27 11:42:32;;;;;;;2.67;0.93;;;20.60;99.90;;;;;;5115743;28;20260;-59
2022/05/27 11:45:06;;;;;;;1.77;1.02;;;20.20;99.90;;;;;;5115754;28;20568;-59
2022/05/27 11:47:51;;;;;;;2.03;1.40;;;20.30;99.90;;;;;;5115770;28;20594;-59
2022/05/27 11:50:38;;;;;;;1.75;1.17;;;20.50;99.90;;;;;;5115554;28;20209;-58
2022/05/27 11:53:41;;;;;;;1.30;1.20;;;20.20;99.90;;;;;;5115633;28;20173;-58
2022/05/27 11:56:36;;;;;;;1.92;1.10;;;20.40;99.90;;;;;;5114243;28;20583;-59
2022/05/27 11:59:25;;;;;;;2.50;1.08;;;20.30;99.90;;;;;;5115544;28;20161;-58
2022/05/27 12:02:04;;;;;;;2.67;1.20;;;20.10;99.90;;;;;;5115536;28;20613;-58
2022/05/27 12:04:37;;;;;;;1.42;1.00;;;20.30;99.90;;;;;;5115439;28;20200;-59
2022/05/27 12:07:35;;;;;;;1.48;1.25;;;20.50;99.90;;;;;;5113284;28;20197;-58
2022/05/27 12:10:46;;;;;;;1.75;1.10;;;20.70;99.90;;;;;;5115371;28;20205;-58
2022/05/27 12:13:21;;;;;;;4.95;1.38;;;20.50;99.90;;;;;;5086725;28;20181;-58
2022/05/27 12:15:53;;;;;;;2.38;1.02;;;20.20;99.90;;;;;;5114128;28;20173;-58
2022/05/27 12:18:29;;;;;;;3.22;1.25;;;19.80;99.90;;;;;;5115251;28;20177;-58
2022/05/27 12:20:56;;;;;;;2.83;1.10;;;19.70;99.90;;;;;;5115465;28;20169;-58
2022/05/27 12:23:26;;;;;;;1.27;1.10;;;19.60;99.90;;;;;;5115004;28;20173;-58
2022/05/27 12:25:55;;;;;;;2.90;1.58;;;19.40;99.90;;;;;;5114810;28;20530;-58
2022/05/27 12:28:27;;;;;;;3.47;1.38;;;19.40;99.90;;;;;;5114999;28;20561;-58
2022/05/27 12:30:54;;;;;;;3.70;1.55;;;19.80;99.90;;;;;;5114970;28;20208;-58
2022/05/27 12:33:24;;;;;;;1.60;1.13;;;19.80;99.90;;;;;;5113618;28;20188;-58
2022/05/27 12:36:30;;;;;;;2.78;1.23;;;20.00;99.90;;;;;;5114763;28;20180;-58
2022/05/27 12:38:58;;;;;;;2.67;1.13;;;20.20;99.90;;;;;;5051852;28;20211;-58
2022/05/27 12:41:38;;;;;;;2.75;1.27;;;20.50;99.90;;;;;;5051898;28;20241;-58
2022/05/27 12:44:19;;;;;;;2.03;1.10;;;20.60;99.90;;;;;;5079899;28;20650;-58
2022/05/27 12:46:50;;;;;;;3.63;1.60;;;20.30;99.90;;;;;;5114547;28;20166;-58
2022/05/27 12:49:37;;;;;;;1.20;1.10;;;19.90;99.90;;;;;;5114442;28;20569;-58
2022/05/27 12:52:24;;;;;;;2.05;1.15;;;19.80;99.90;;;;;;5114488;28;20180;-58
2022/05/27 12:54:50;;;;;;;1.42;1.10;;;19.70;99.90;;;;;;5114181;28;20703;-58
2022/05/27 13:01:00;;;;;;;1.63;1.02;;;20.00;99.90;;;;;;5114632;28;20672;-59
2022/05/27 13:03:35;;;;;;;2.70;0.90;;;19.70;98.80;;;;;;5114063;28;20169;-58
2022/05/27 13:06:12;;;;;;;2.05;1.13;;;19.90;99.90;;;;;;5114362;28;20193;-58
2022/05/27 13:08:46;;;;;;;3.20;1.17;;;20.10;99.90;;;;;;5114343;28;20184;-58
2022/05/27 13:11:25;;;;;;;0.98;0.88;;;20.30;99.30;;;;;;5114079;28;20197;-58
2022/05/27 13:14:23;;;;;;;2.25;1.20;;;20.60;99.50;;;;;;5114622;28;20210;-58
2022/05/27 13:17:05;;;;;;;3.25;1.10;;;20.40;98.80;;;;;;5108043;28;20191;-59
2022/05/27 13:19:41;;;;;;;1.63;0.90;;;20.30;97.00;;;;;;5113995;28;20183;-59
2022/05/27 13:22:35;;;;;;;1.02;0.90;;;19.90;98.80;;;;;;5113860;28;20218;-59
2022/05/27 13:25:40;;;;;;;2.15;1.23;;;19.50;99.60;;;;;;5114026;28;20169;-58
2022/05/27 13:28:22;;;;;;;2.72;1.50;;;19.70;99.60;;;;;;5050975;28;20175;-59
2022/05/27 13:31:10;;;;;;;1.65;1.05;;;19.30;98.00;;;;;;5109484;28;20232;-59
2022/05/27 13:33:42;;;;;;;4.28;1.10;;;19.50;99.80;;;;;;5113898;28;20636;-58
2022/05/27 13:36:22;;;;;;;2.63;1.10;;;19.50;99.50;;;;;;5113694;28;20221;-59
2022/05/27 13:39:11;;;;;;;2.83;1.35;;;19.40;99.90;;;;;;5112466;28;20196;-58
2022/05/27 13:41:45;;;;;;;1.90;1.10;;;19.50;99.00;;;;;;5112585;28;20649;-58
2022/05/27 13:44:13;;;;;;;1.75;1.08;;;19.60;99.90;;;;;;5114004;28;20176;-58
2022/05/27 13:46:47;;;;;;;2.15;1.30;;;19.60;99.10;;;;;;5113620;28;20518;-58
2022/05/27 13:49:35;;;;;;;1.88;1.20;;;19.80;99.60;;;;;;5113475;28;20256;-58
2022/05/27 13:52:10;;;;;;;1.70;1.02;;;19.70;98.80;;;;;;5111492;28;20242;-58